Time;durP1;ratioP1;P1;durP2;ratioP2;P2;SDS_P1;SDS_P2;PMS_P1;PMS_P2;Temp;Humidity;BMP_temperature;BMP_pressure;BME280_temperature;BME280_humidity;BME280_pressure;Samples;Min_cycle;Max_cycle;Signal;HPM_P1;HPM_P2
2024/03/01 00:00:50;;;;;;;63.60;39.20;;;;;;;9.06;100.00;100140.11;103250;1254;108637;-74
2024/03/01 00:03:37;;;;;;;67.10;39.80;;;;;;;9.07;100.00;100136.27;103225;1256;97809;-74
2024/03/01 00:06:05;;;;;;;67.80;41.70;;;;;;;9.07;100.00;100139.23;103120;1254;109770;-73
2024/03/01 00:08:32;;;;;;;66.40;41.10;;;;;;;9.07;100.00;100143.37;103114;1259;140080;-73
2024/03/01 00:10:59;;;;;;;69.80;41.50;;;;;;;9.07;100.00;100139.39;102541;1254;1003020;-73
2024/03/01 00:13:26;;;;;;;67.80;42.60;;;;;;;9.07;100.00;100139.55;103104;1254;141330;-74
2024/03/01 00:15:55;;;;;;;73.70;45.00;;;;;;;9.07;100.00;100132.98;103165;1259;97801;-72
2024/03/01 00:18:22;;;;;;;72.90;43.20;;;;;;;9.06;100.00;100125.90;103254;1256;110582;-73
2024/03/01 00:20:50;;;;;;;70.30;42.10;;;;;;;9.05;100.00;100120.73;103131;1261;140582;-73
2024/03/01 00:23:17;;;;;;;74.60;43.90;;;;;;;9.04;100.00;100123.52;103253;1254;98406;-72
2024/03/01 00:25:45;;;;;;;67.80;43.40;;;;;;;9.05;100.00;100122.81;103246;1254;139082;-72
2024/03/01 00:28:12;;;;;;;69.20;43.20;;;;;;;9.05;100.00;100118.30;103195;1254;97784;-73
2024/03/01 00:30:39;;;;;;;73.90;44.60;;;;;;;9.05;100.00;100122.65;103297;1254;111327;-72
2024/03/01 00:33:06;;;;;;;64.10;41.80;;;;;;;9.05;100.00;100117.61;103077;1254;139111;-73
2024/03/01 00:35:33;;;;;;;71.50;44.20;;;;;;;9.05;100.00;100110.85;103293;1255;98445;-72
2024/03/01 00:38:00;;;;;;;73.60;44.80;;;;;;;9.05;100.00;100109.98;103111;1254;139115;-72
2024/03/01 00:40:27;;;;;;;69.70;42.70;;;;;;;9.04;100.00;100104.78;103191;1259;97904;-71
2024/03/01 00:42:54;;;;;;;72.50;44.60;;;;;;;9.03;100.00;100105.68;103232;1258;111385;-72
2024/03/01 00:45:21;;;;;;;68.20;42.70;;;;;;;9.03;100.00;100095.44;103103;1254;138973;-72
2024/03/01 00:47:50;;;;;;;68.20;41.40;;;;;;;9.04;100.00;100085.02;103157;1258;99088;-73
2024/03/01 00:50:21;;;;;;;69.30;42.70;;;;;;;9.05;100.00;100079.98;102984;1254;138704;-73
2024/03/01 00:52:47;;;;;;;70.10;42.80;;;;;;;9.06;100.00;100079.60;103198;1256;97958;-72
2024/03/01 00:55:15;;;;;;;69.80;42.20;;;;;;;9.05;100.00;100073.73;103185;1258;110736;-72
2024/03/01 00:57:43;;;;;;;65.60;42.40;;;;;;;9.05;100.00;100074.60;103298;1253;108052;-73
2024/03/01 01:00:12;;;;;;;71.90;42.10;;;;;;;9.04;100.00;100075.48;103180;1253;97845;-72
2024/03/01 01:02:39;;;;;;;70.60;43.80;;;;;;;9.04;100.00;100067.52;103884;1254;138867;-73
2024/03/01 01:05:08;;;;;;;70.00;42.60;;;;;;;9.04;100.00;100062.33;103276;1257;97876;-73
2024/03/01 01:07:35;;;;;;;65.60;40.10;;;;;;;9.04;100.00;100057.45;103078;1254;138845;-72
2024/03/01 01:10:04;;;;;;;67.90;42.10;;;;;;;9.05;100.00;100055.16;103130;1254;106671;-72
2024/03/01 01:12:31;;;;;;;67.80;42.20;;;;;;;9.05;100.00;100056.89;103223;1254;98983;-71
2024/03/01 01:14:59;;;;;;;69.60;43.20;;;;;;;9.05;100.00;100051.88;103025;1254;140445;-72
2024/03/01 01:17:27;;;;;;;71.40;43.90;;;;;;;9.02;100.00;100051.78;103153;1254;97852;-72
2024/03/01 01:19:56;;;;;;;68.00;42.30;;;;;;;9.00;100.00;100051.52;103074;1256;139726;-72
2024/03/01 01:22:23;;;;;;;71.90;43.30;;;;;;;8.99;100.00;100051.20;103113;1254;105788;-72
2024/03/01 01:24:51;;;;;;;70.30;42.40;;;;;;;8.98;100.00;100047.40;103175;1258;98460;-72
2024/03/01 01:27:18;;;;;;;70.50;43.00;;;;;;;8.99;100.00;100045.14;103049;1254;140475;-73
2024/03/01 01:29:45;;;;;;;63.10;41.20;;;;;;;8.99;100.00;100042.01;103131;1254;97885;-71
2024/03/01 01:32:13;;;;;;;66.40;40.80;;;;;;;8.97;100.00;100032.68;102956;1254;138937;-72
2024/03/01 01:34:40;;;;;;;67.80;41.00;;;;;;;8.96;100.00;100028.89;103135;1255;107092;-73
2024/03/01 01:37:07;;;;;;;64.50;39.50;;;;;;;8.96;100.00;100029.56;103199;1254;98451;-72
2024/03/01 01:39:34;;;;;;;59.70;38.40;;;;;;;8.97;100.00;100023.48;103076;1256;138567;-72
2024/03/01 01:42:01;;;;;;;61.20;38.60;;;;;;;8.97;100.00;100020.20;103221;1254;97898;-73
2024/03/01 01:44:28;;;;;;;60.40;38.40;;;;;;;8.98;100.00;100020.00;103102;1254;141333;-73
2024/03/01 01:46:55;;;;;;;67.40;39.60;;;;;;;9.00;100.00;100015.80;103199;1258;107491;-72
2024/03/01 01:49:26;;;;;;;63.20;40.10;;;;;;;9.01;100.00;100014.73;103077;1258;139664;-72
2024/03/01 01:51:54;;;;;;;62.30;39.70;;;;;;;9.00;100.00;100013.53;103106;1254;107788;-71
2024/03/01 01:54:21;;;;;;;62.50;38.70;;;;;;;9.02;100.00;100019.39;103185;1254;97881;-72
2024/03/01 01:56:49;;;;;;;58.50;39.00;;;;;;;9.02;100.00;100013.11;103185;1254;138707;-71
2024/03/01 01:59:17;;;;;;;62.60;39.70;;;;;;;9.00;100.00;100012.31;103148;1254;105825;-72
2024/03/01 02:01:45;;;;;;;58.60;38.40;;;;;;;8.99;100.00;100014.08;103112;1258;139574;-72
2024/03/01 02:04:12;;;;;;;60.90;37.90;;;;;;;8.99;100.00;100005.59;103100;1258;107936;-73
2024/03/01 02:06:44;;;;;;;60.30;38.50;;;;;;;9.00;100.00;100007.98;103187;1257;97671;-72
2024/03/01 02:09:13;;;;;;;60.80;39.10;;;;;;;9.02;100.00;100001.52;103082;1258;138733;-72
2024/03/01 02:11:40;;;;;;;65.50;40.40;;;;;;;9.02;100.00;99998.04;103138;1256;107296;-72
2024/03/01 02:14:09;;;;;;;61.80;41.40;;;;;;;9.01;100.00;99990.63;103021;1258;139920;-72
2024/03/01 02:16:36;;;;;;;67.50;40.50;;;;;;;8.99;100.00;99993.61;103211;1254;107959;-73
2024/03/01 02:19:05;;;;;;;62.30;40.80;;;;;;;8.96;100.00;99988.31;103238;1258;97980;-73
2024/03/01 02:21:36;;;;;;;67.80;43.30;;;;;;;8.96;100.00;99991.27;103194;1256;138426;-72
2024/03/01 02:24:04;;;;;;;64.00;42.20;;;;;;;8.95;100.00;99990.25;103171;1256;107853;-73
2024/03/01 02:26:32;;;;;;;67.90;43.30;;;;;;;8.93;100.00;99992.20;103046;1255;140361;-73
2024/03/01 02:28:58;;;;;;;65.50;42.50;;;;;;;8.91;100.00;99992.80;103196;1254;107112;-74
2024/03/01 02:31:25;;;;;;;66.80;43.50;;;;;;;8.90;100.00;99993.34;103128;1254;138917;-74
2024/03/01 02:33:52;;;;;;;65.10;43.00;;;;;;;8.90;100.00;99986.08;103186;1257;111037;-74
2024/03/01 02:36:19;;;;;;;67.50;43.00;;;;;;;8.90;100.00;99984.86;103190;1254;107727;-73
2024/03/01 02:38:46;;;;;;;65.30;41.40;;;;;;;8.89;100.00;99978.81;103124;1256;138670;-73
2024/03/01 02:41:14;;;;;;;63.20;40.20;;;;;;;8.91;100.00;99978.77;103191;1254;107353;-73
2024/03/01 02:43:41;;;;;;;65.20;39.60;;;;;;;8.94;100.00;99977.63;102982;1254;138901;-73
2024/03/01 02:46:08;;;;;;;64.30;41.20;;;;;;;8.96;100.00;99976.86;103232;1254;110536;-73
2024/03/01 02:48:35;;;;;;;62.80;40.70;;;;;;;8.96;100.00;99973.03;103100;1258;109507;-73
2024/03/01 02:51:02;;;;;;;62.00;39.40;;;;;;;8.96;100.00;99961.09;103057;1255;138673;-73
2024/03/01 02:53:29;;;;;;;60.60;38.60;;;;;;;8.95;100.00;99965.12;103217;1254;108556;-73
2024/03/01 02:55:56;;;;;;;61.30;40.10;;;;;;;8.94;100.00;99964.28;103071;1254;138910;-73
2024/03/01 02:58:24;;;;;;;64.60;40.40;;;;;;;8.96;100.00;99958.84;103139;1254;111180;-72
2024/03/01 03:00:51;;;;;;;60.60;39.60;;;;;;;8.95;100.00;99959.88;103158;1258;106874;-73
2024/03/01 03:03:18;;;;;;;69.90;41.90;;;;;;;8.93;100.00;99958.23;103027;1258;139045;-73
2024/03/01 03:05:45;;;;;;;65.50;42.10;;;;;;;8.89;100.00;99950.38;103142;1258;107427;-73
2024/03/01 03:08:13;;;;;;;62.90;42.40;;;;;;;8.85;100.00;99956.05;102944;1260;140146;-74
2024/03/01 03:10:40;;;;;;;62.70;41.50;;;;;;;8.82;100.00;99950.60;103148;1258;110055;-74
2024/03/01 03:13:07;;;;;;;66.10;40.70;;;;;;;8.81;100.00;99950.30;103098;1254;107855;-73
2024/03/01 03:15:34;;;;;;;67.20;40.70;;;;;;;8.79;100.00;99956.23;103579;1255;139467;-74
2024/03/01 03:18:01;;;;;;;64.30;40.70;;;;;;;8.77;100.00;99949.67;103158;1256;106936;-74
2024/03/01 03:20:28;;;;;;;66.90;42.00;;;;;;;8.77;100.00;99949.84;103071;1254;138825;-74
2024/03/01 03:22:56;;;;;;;63.40;42.20;;;;;;;8.79;100.00;99936.61;103175;1254;110589;-73
2024/03/01 03:25:23;;;;;;;66.00;39.90;;;;;;;8.79;100.00;99928.31;102958;1258;139517;-74
2024/03/01 03:27:50;;;;;;;69.90;41.20;;;;;;;8.78;100.00;99930.23;103185;1256;98268;-74
2024/03/01 03:30:18;;;;;;;64.50;40.30;;;;;;;8.78;100.00;99929.90;103139;1254;108057;-74
2024/03/01 03:32:45;;;;;;;61.80;40.60;;;;;;;8.77;100.00;99936.50;103062;1258;140109;-74
2024/03/01 03:35:12;;;;;;;68.60;41.90;;;;;;;8.78;100.00;99928.15;103271;1254;111648;-73
2024/03/01 03:37:39;;;;;;;66.60;41.70;;;;;;;8.79;100.00;99931.59;103028;1254;139423;-73
2024/03/01 03:40:14;;;;;;;64.00;42.20;;;;;;;8.80;100.00;99932.45;103189;1255;98334;-73
2024/03/01 03:42:41;;;;;;;64.80;41.00;;;;;;;8.80;100.00;99929.86;104551;1254;107108;-72
2024/03/01 03:45:10;;;;;;;65.40;42.90;;;;;;;8.81;100.00;99925.86;103466;1258;138799;-73
2024/03/01 03:47:37;;;;;;;65.20;42.20;;;;;;;8.82;100.00;99921.31;103156;1254;110689;-70
2024/03/01 03:50:06;;;;;;;69.60;42.90;;;;;;;8.81;100.00;99914.58;103013;1258;138767;-73
2024/03/01 03:52:34;;;;;;;67.30;43.40;;;;;;;8.82;100.00;99913.52;103173;1254;97827;-72
2024/03/01 03:55:04;;;;;;;65.70;42.10;;;;;;;8.83;100.00;99915.23;103159;1257;106450;-73
2024/03/01 03:57:32;;;;;;;71.10;43.30;;;;;;;8.84;100.00;99918.82;103053;1254;138537;-72
2024/03/01 03:59:59;;;;;;;64.90;42.70;;;;;;;8.84;100.00;99912.23;103191;1255;110655;-72
2024/03/01 04:02:27;;;;;;;69.40;45.10;;;;;;;8.85;100.00;99912.38;103119;1254;138697;-72
2024/03/01 04:04:54;;;;;;;70.50;44.30;;;;;;;8.85;100.00;99913.59;103237;1256;97722;-73
2024/03/01 04:07:21;;;;;;;72.20;44.90;;;;;;;8.86;100.00;99907.83;103098;1258;140363;-72
2024/03/01 04:09:48;;;;;;;69.90;44.60;;;;;;;8.85;100.00;99904.38;103154;1259;97870;-72
2024/03/01 04:12:15;;;;;;;70.80;44.00;;;;;;;8.85;100.00;99907.70;103281;1258;110814;-73
2024/03/01 04:14:42;;;;;;;71.00;45.00;;;;;;;8.85;100.00;99909.27;103080;1254;138856;-72
2024/03/01 04:17:10;;;;;;;69.00;45.40;;;;;;;8.84;100.00;99906.69;103208;1254;97696;-73
2024/03/01 04:19:38;;;;;;;68.90;42.70;;;;;;;8.82;100.00;99900.52;103674;1254;139197;-72
2024/03/01 04:22:05;;;;;;;70.90;45.00;;;;;;;8.82;100.00;99900.35;103145;1254;97768;-73
2024/03/01 04:24:32;;;;;;;67.70;42.80;;;;;;;8.80;100.00;99892.41;103185;1254;111977;-71
2024/03/01 04:27:01;;;;;;;69.60;43.10;;;;;;;8.78;100.00;99893.13;103008;1256;142369;-72
2024/03/01 04:29:29;;;;;;;65.90;43.40;;;;;;;8.76;100.00;99892.69;103163;1254;98261;-72
2024/03/01 04:31:56;;;;;;;66.90;43.30;;;;;;;8.73;100.00;99897.46;103061;1254;138785;-72
2024/03/01 04:34:23;;;;;;;70.50;43.50;;;;;;;8.71;100.00;99898.04;103122;1254;97836;-72
2024/03/01 04:36:50;;;;;;;65.10;42.40;;;;;;;8.70;100.00;99899.48;103266;1259;112050;-73
2024/03/01 04:39:17;;;;;;;66.30;43.40;;;;;;;8.69;100.00;99898.98;103156;1254;138983;-72
2024/03/01 04:41:44;;;;;;;65.90;43.70;;;;;;;8.68;100.00;99900.91;103285;1256;98325;-73
2024/03/01 04:44:11;;;;;;;66.40;43.90;;;;;;;8.67;100.00;99891.23;103085;1254;138537;-73
2024/03/01 04:46:43;;;;;;;68.60;45.00;;;;;;;8.67;100.00;99893.70;103235;1254;97810;-73
2024/03/01 04:49:10;;;;;;;64.50;44.20;;;;;;;8.65;100.00;99893.55;103217;1254;111374;-73
2024/03/01 04:51:37;;;;;;;67.40;44.50;;;;;;;8.63;100.00;99899.70;103081;1254;138491;-73
2024/03/01 04:54:04;;;;;;;63.50;42.80;;;;;;;8.61;100.00;99902.34;103215;1256;97690;-72
2024/03/01 04:56:31;;;;;;;63.50;40.60;;;;;;;8.59;100.00;99903.94;103093;1254;138608;-73
2024/03/01 04:58:58;;;;;;;61.10;40.20;;;;;;;8.57;100.00;99906.08;103199;1255;98075;-73
2024/03/01 05:01:25;;;;;;;61.00;40.10;;;;;;;8.55;100.00;99903.05;103096;1254;140889;-72
2024/03/01 05:03:53;;;;;;;63.40;40.40;;;;;;;8.53;100.00;99902.05;103152;1259;108919;-74
2024/03/01 05:06:20;;;;;;;60.70;40.00;;;;;;;8.53;100.00;99902.76;103216;1259;98361;-71
2024/03/01 05:08:47;;;;;;;62.40;42.00;;;;;;;8.53;100.00;99902.77;103095;1254;138556;-72
2024/03/01 05:11:17;;;;;;;66.80;42.40;;;;;;;8.52;100.00;99906.60;103021;1258;97914;-71
2024/03/01 05:13:44;;;;;;;62.70;40.70;;;;;;;8.50;100.00;99907.69;103004;1254;138956;-74
2024/03/01 05:16:11;;;;;;;57.80;40.90;;;;;;;8.50;100.00;99907.86;103120;1254;106843;-71
2024/03/01 05:18:39;;;;;;;62.70;40.80;;;;;;;8.48;100.00;99907.05;103179;1254;97787;-72
2024/03/01 05:21:08;;;;;;;63.80;41.40;;;;;;;8.50;100.00;99906.85;102906;1254;138562;-71
2024/03/01 05:23:35;;;;;;;62.90;41.70;;;;;;;8.48;100.00;99904.27;103030;1254;97791;-72
2024/03/01 05:26:03;;;;;;;61.00;40.10;;;;;;;8.48;100.00;99902.89;102982;1254;138610;-71
2024/03/01 05:28:31;;;;;;;60.40;40.40;;;;;;;8.47;100.00;99905.01;103039;1255;108372;-71
2024/03/01 05:30:58;;;;;;;63.50;40.70;;;;;;;8.45;100.00;99906.98;103183;1256;97788;-71
2024/03/01 05:33:40;;;;;;;58.10;40.30;;;;;;;8.43;100.00;99910.48;103208;1253;106988;-73
2024/03/01 05:36:08;;;;;;;63.30;39.60;;;;;;;8.42;100.00;99909.45;103339;1253;97655;-74
2024/03/01 05:38:35;;;;;;;59.70;40.30;;;;;;;8.42;100.00;99905.31;103129;1257;138673;-73
2024/03/01 05:41:02;;;;;;;62.80;41.20;;;;;;;8.42;100.00;99912.73;103104;1254;107649;-73
2024/03/01 05:43:29;;;;;;;60.90;39.70;;;;;;;8.41;100.00;99914.54;103003;1258;139271;-73
2024/03/01 05:45:58;;;;;;;58.30;38.00;;;;;;;8.37;100.00;99907.71;103275;1253;107243;-76
2024/03/01 05:48:25;;;;;;;58.50;39.60;;;;;;;8.34;100.00;99907.27;103238;1255;97814;-71
2024/03/01 05:50:53;;;;;;;58.60;38.40;;;;;;;8.34;100.00;99904.69;103132;1255;138573;-70
2024/03/01 05:53:20;;;;;;;62.50;39.70;;;;;;;8.34;100.00;99906.40;103157;1254;108542;-72
2024/03/01 05:55:47;;;;;;;56.40;37.90;;;;;;;8.33;100.00;99911.79;103184;1258;140379;-71
2024/03/01 05:58:14;;;;;;;57.80;36.80;;;;;;;8.30;100.00;99905.48;103181;1254;108848;-71
2024/03/01 06:00:43;;;;;;;55.50;37.30;;;;;;;8.28;100.00;99914.19;103142;1254;97788;-70
2024/03/01 06:03:11;;;;;;;48.70;35.10;;;;;;;8.26;100.00;99912.33;103075;1254;138668;-70
2024/03/01 06:05:38;;;;;;;51.10;36.40;;;;;;;8.25;100.00;99911.65;103178;1255;107792;-70
2024/03/01 06:08:05;;;;;;;53.20;36.00;;;;;;;8.24;100.00;99907.85;103020;1256;139657;-70
2024/03/01 06:10:33;;;;;;;51.80;36.70;;;;;;;8.24;100.00;99902.14;103202;1258;107081;-72
2024/03/01 06:13:00;;;;;;;52.20;35.90;;;;;;;8.25;100.00;99899.18;103119;1256;97810;-71
2024/03/01 06:15:28;;;;;;;56.90;36.30;;;;;;;8.25;100.00;99901.79;103177;1253;140334;-71
2024/03/01 06:17:55;;;;;;;53.20;35.30;;;;;;;8.26;100.00;99896.23;103245;1253;107488;-71
2024/03/01 06:20:22;;;;;;;50.70;35.00;;;;;;;8.27;100.00;99902.61;103146;1253;140375;-72
2024/03/01 06:22:49;;;;;;;55.70;35.60;;;;;;;8.28;100.00;99905.37;103239;1253;107416;-71
2024/03/01 06:25:16;;;;;;;51.10;34.90;;;;;;;8.29;100.00;99915.18;103301;1253;97787;-73
2024/03/01 06:27:45;;;;;;;53.50;34.40;;;;;;;8.29;100.00;99910.18;103235;1258;112159;-72
2024/03/01 06:30:12;;;;;;;54.80;35.40;;;;;;;8.31;100.00;99912.89;103194;1253;108318;-72
2024/03/01 06:32:42;;;;;;;51.40;34.60;;;;;;;8.33;100.00;99906.77;103170;1257;138716;-73
2024/03/01 06:35:10;;;;;;;45.70;32.30;;;;;;;8.34;99.95;99903.13;103241;1253;105809;-73
2024/03/01 06:37:37;;;;;;;51.30;33.70;;;;;;;8.38;99.79;99902.66;103130;1253;138806;-73
2024/03/01 06:40:06;;;;;;;51.00;33.70;;;;;;;8.40;99.41;99900.86;103224;1253;111351;-72
2024/03/01 06:42:33;;;;;;;50.70;33.60;;;;;;;8.41;98.95;99903.59;103230;1253;107862;-73
2024/03/01 06:45:00;;;;;;;50.90;32.30;;;;;;;8.44;98.91;99899.90;103179;1253;138452;-72
2024/03/01 06:47:30;;;;;;;45.40;32.80;;;;;;;8.47;98.65;99902.23;103226;1254;106956;-74
2024/03/01 06:49:57;;;;;;;46.70;32.30;;;;;;;8.49;98.16;99894.21;103155;1257;138789;-72
2024/03/01 06:52:25;;;;;;;46.10;32.10;;;;;;;8.48;97.69;99904.45;103308;1253;110694;-72
2024/03/01 06:54:52;;;;;;;48.20;31.50;;;;;;;8.47;97.80;99899.62;103255;1257;108292;-73
2024/03/01 06:57:19;;;;;;;45.50;32.50;;;;;;;8.49;97.58;99895.27;103186;1254;138602;-72
2024/03/01 06:59:46;;;;;;;45.30;32.00;;;;;;;8.52;97.20;99902.64;103259;1257;107113;-72
2024/03/01 07:02:14;;;;;;;49.50;32.80;;;;;;;8.53;96.96;99905.00;103027;1253;138490;-72
2024/03/01 07:04:41;;;;;;;54.00;32.40;;;;;;;8.54;96.62;99896.48;103198;1257;112215;-72
2024/03/01 07:07:08;;;;;;;46.90;32.60;;;;;;;8.59;96.80;99896.50;103225;1257;106882;-72
2024/03/01 07:09:35;;;;;;;46.00;30.80;;;;;;;8.67;96.10;99900.77;102466;1257;138336;-74
2024/03/01 07:12:03;;;;;;;43.80;30.20;;;;;;;8.81;96.08;99902.78;103030;1253;108237;-74
2024/03/01 07:14:29;;;;;;;46.50;29.70;;;;;;;9.12;95.22;99903.89;102925;1253;139769;-69
2024/03/01 07:16:56;;;;;;;45.50;31.00;;;;;;;9.38;93.37;99903.76;103150;1253;111283;-69
2024/03/01 07:19:24;;;;;;;49.60;31.50;;;;;;;9.65;93.47;99902.31;103034;1253;139220;-69
2024/03/01 07:21:51;;;;;;;39.90;29.30;;;;;;;10.32;92.00;99897.35;103196;1257;97731;-69
2024/03/01 07:24:18;;;;;;;38.80;27.80;;;;;;;11.26;88.23;99901.58;103250;1253;107867;-68
2024/03/01 07:26:45;;;;;;;43.70;27.70;;;;;;;11.97;83.30;99889.75;103069;1253;138728;-69
2024/03/01 07:29:12;;;;;;;37.50;25.80;;;;;;;12.77;84.49;99876.35;103223;1253;111285;-69
2024/03/01 07:31:39;;;;;;;37.70;25.80;;;;;;;13.67;81.43;99873.86;103045;1253;139821;-69
2024/03/01 07:34:06;;;;;;;38.60;26.40;;;;;;;14.50;81.42;99871.23;103268;1253;98419;-68
2024/03/01 07:36:34;;;;;;;36.20;25.70;;;;;;;15.32;76.74;99872.98;103081;1257;108022;-70
2024/03/01 07:39:01;;;;;;;32.10;24.80;;;;;;;15.93;75.85;99866.06;103991;1253;137988;-68
2024/03/01 07:41:30;;;;;;;33.70;24.80;;;;;;;16.59;71.89;99864.84;103975;1253;112406;-69
2024/03/01 07:43:57;;;;;;;32.60;24.60;;;;;;;16.85;68.30;99865.85;103042;1253;139440;-69
2024/03/01 07:46:24;;;;;;;32.30;24.40;;;;;;;17.14;66.32;99873.92;103061;1257;97975;-69
2024/03/01 07:48:52;;;;;;;30.70;24.20;;;;;;;17.10;60.85;99878.24;103096;1257;108255;-68
2024/03/01 07:51:19;;;;;;;37.40;25.40;;;;;;;16.79;61.68;99871.47;103019;1257;141292;-69
2024/03/01 07:53:47;;;;;;;33.20;24.20;;;;;;;16.66;60.47;99864.54;103146;1253;111589;-70
2024/03/01 07:56:15;;;;;;;31.90;23.80;;;;;;;16.63;59.78;99867.00;102901;1257;139327;-69
2024/03/01 07:58:43;;;;;;;31.70;23.40;;;;;;;16.44;59.87;99860.82;103121;1255;98179;-69
2024/03/01 08:01:10;;;;;;;35.00;23.40;;;;;;;16.61;60.89;99863.98;103018;1254;107256;-71
2024/03/01 08:03:37;;;;;;;30.80;23.30;;;;;;;16.91;61.53;99854.04;102999;1256;138039;-70
2024/03/01 08:06:04;;;;;;;33.80;23.90;;;;;;;17.16;60.21;99857.11;103174;1254;111247;-70
2024/03/01 08:08:45;;;;;;;30.40;23.90;;;;;;;17.20;58.97;99854.95;102976;1255;138303;-71
2024/03/01 08:11:12;;;;;;;29.90;23.30;;;;;;;17.01;58.35;99861.83;103119;1258;97803;-75
2024/03/01 08:13:40;;;;;;;35.30;23.00;;;;;;;16.85;57.70;99878.13;103023;1256;138134;-75
2024/03/01 08:16:12;;;;;;;30.70;23.70;;;;;;;16.67;59.47;99873.98;103141;1254;98506;-76
2024/03/01 08:18:42;;;;;;;30.60;24.50;;;;;;;16.39;57.17;99878.20;103132;1259;110895;-75
2024/03/01 08:21:14;;;;;;;32.60;24.80;;;;;;;15.91;58.04;99882.69;102999;1258;138513;-75
2024/03/01 08:23:44;;;;;;;30.10;23.50;;;;;;;15.28;57.43;99883.41;103177;1258;99401;-76
2024/03/01 08:26:23;;;;;;;30.50;23.60;;;;;;;14.85;59.50;99875.83;103034;1255;137899;-76
2024/03/01 08:28:50;;;;;;;33.10;24.70;;;;;;;14.55;59.86;99867.90;103219;1256;97777;-76
2024/03/01 08:31:25;;;;;;;35.40;23.70;;;;;;;14.30;61.08;99864.14;103198;1255;111131;-76
2024/03/01 08:33:58;;;;;;;33.10;24.70;;;;;;;14.19;62.76;99865.39;103225;1258;108560;-76
2024/03/01 08:36:25;;;;;;;35.80;24.00;;;;;;;14.17;62.78;99863.05;103118;1258;97816;-75
2024/03/01 08:39:06;;;;;;;32.80;23.60;;;;;;;14.27;61.74;99867.60;103070;1253;138327;-76
2024/03/01 08:41:33;;;;;;;31.70;24.40;;;;;;;14.18;61.59;99866.69;103294;1253;97807;-76
2024/03/01 08:44:01;;;;;;;35.80;23.90;;;;;;;13.93;61.14;99863.29;103126;1253;138958;-76
2024/03/01 08:46:33;;;;;;;33.40;24.30;;;;;;;13.55;61.71;99853.90;103290;1257;107263;-76
2024/03/01 08:49:23;;;;;;;31.60;23.50;;;;;;;13.23;61.99;99854.09;103324;1253;97898;-77
2024/03/01 08:51:50;;;;;;;33.10;23.60;;;;;;;13.08;63.84;99849.04;103299;1253;106707;-77
2024/03/01 08:54:20;;;;;;;35.20;24.20;;;;;;;13.05;64.85;99840.47;103327;1253;97662;-77
2024/03/01 08:57:01;;;;;;;33.60;24.10;;;;;;;13.05;64.95;99835.89;103228;1253;139063;-77
2024/03/01 08:59:45;;;;;;;30.70;24.10;;;;;;;12.96;65.16;99838.79;103298;1258;106803;-77
2024/03/01 09:02:41;;;;;;;34.10;24.10;;;;;;;12.93;65.62;99832.50;103266;1259;139254;-76
2024/03/01 09:05:11;;;;;;;32.60;24.00;;;;;;;12.91;64.49;99831.20;103326;1253;107344;-76
2024/03/01 09:07:38;;;;;;;33.40;24.10;;;;;;;12.77;64.57;99831.51;103142;1253;138614;-76
2024/03/01 09:10:16;;;;;;;35.80;24.70;;;;;;;12.62;65.54;99829.60;103344;1253;110835;-76
2024/03/01 09:12:44;;;;;;;34.60;24.70;;;;;;;12.54;65.97;99828.08;103209;1256;108328;-76
2024/03/01 09:15:14;;;;;;;32.30;23.00;;;;;;;12.43;65.96;99821.78;103159;1253;139593;-75
2024/03/01 09:17:40;;;;;;;35.90;24.50;;;;;;;12.28;65.54;99821.79;103532;1253;107334;-76
2024/03/01 09:20:31;;;;;;;33.60;22.80;;;;;;;12.19;66.29;99827.42;103311;1253;138065;-76
2024/03/01 09:22:58;;;;;;;36.50;22.40;;;;;;;12.17;66.97;99816.16;103689;1258;110889;-76
2024/03/01 09:26:02;;;;;;;33.00;23.10;;;;;;;12.25;67.51;99818.27;103298;1258;109039;-75
2024/03/01 09:28:29;;;;;;;36.30;23.90;;;;;;;12.27;66.53;99818.52;104534;1253;95937;-76
2024/03/01 09:30:57;;;;;;;36.70;23.20;;;;;;;12.20;66.05;99815.70;103932;1253;107758;-76
2024/03/01 09:33:25;;;;;;;32.50;22.80;;;;;;;12.13;66.36;99811.66;103141;1253;138525;-75
2024/03/01 09:35:53;;;;;;;28.90;21.10;;;;;;;12.15;67.06;99808.61;103349;1253;110638;-75
2024/03/01 09:38:22;;;;;;;35.50;23.40;;;;;;;12.20;66.94;99806.47;103193;1254;138376;-75
2024/03/01 09:41:26;;;;;;;31.40;22.40;;;;;;;12.27;67.03;99809.79;103325;1253;97679;-75
2024/03/01 09:44:03;;;;;;;30.90;22.10;;;;;;;12.26;66.89;99810.20;103210;1253;140556;-76
2024/03/01 09:46:34;;;;;;;;;;;;;;;12.33;67.14;99809.00;103264;1256;97797;-76
2024/03/01 09:49:11;;;;;;;30.70;21.90;;;;;;;12.43;66.89;99808.55;103344;1253;111295;-76
2024/03/01 09:51:42;;;;;;;;;;;;;;;12.62;66.94;99809.73;104068;1253;138189;-76
2024/03/01 09:54:27;;;;;;;30.90;21.70;;;;;;;12.70;66.09;99817.02;103254;1253;97785;-75
2024/03/01 09:57:06;;;;;;;30.50;21.70;;;;;;;12.69;65.77;99817.95;103367;1253;139679;-75
2024/03/01 09:59:43;;;;;;;33.50;22.70;;;;;;;12.65;65.87;99823.52;103302;1258;97797;-76
2024/03/01 10:02:25;;;;;;;33.60;22.60;;;;;;;12.64;65.49;99823.05;103261;1257;137991;-77
2024/03/01 10:05:07;;;;;;;33.40;21.40;;;;;;;12.62;66.16;99818.42;103178;1259;106238;-76
2024/03/01 10:07:44;;;;;;;31.30;22.20;;;;;;;12.58;64.83;99819.50;103168;1253;138146;-76
2024/03/01 10:10:36;;;;;;;28.20;21.30;;;;;;;12.46;65.19;99816.25;104403;1257;107593;-76
2024/03/01 10:13:14;;;;;;;31.10;20.90;;;;;;;12.41;65.83;99817.00;103293;1253;97867;-75
2024/03/01 10:15:53;;;;;;;30.90;20.80;;;;;;;12.38;65.93;99811.18;103153;1254;139561;-75
2024/03/01 10:18:40;;;;;;;33.00;21.00;;;;;;;12.38;66.10;99811.02;103327;1259;107698;-76
2024/03/01 10:21:23;;;;;;;31.20;21.60;;;;;;;12.40;65.03;99824.54;103247;1257;139112;-75
2024/03/01 10:24:07;;;;;;;30.50;21.40;;;;;;;12.34;65.22;99823.23;103244;1253;107383;-75
2024/03/01 10:26:36;;;;;;;27.80;21.20;;;;;;;12.38;65.06;99822.88;103160;1253;137968;-75
2024/03/01 10:29:21;;;;;;;33.00;21.10;;;;;;;12.44;65.27;99814.23;103327;1253;111035;-74
2024/03/01 10:31:58;;;;;;;26.50;19.90;;;;;;;12.58;65.16;99802.44;103174;1259;138052;-75
2024/03/01 10:34:36;;;;;;;29.20;20.70;;;;;;;12.65;64.03;99803.64;103232;1258;123426;-75
2024/03/01 10:37:10;;;;;;;31.40;20.40;;;;;;;12.64;63.70;99798.83;103292;1253;107308;-76
2024/03/01 10:39:46;;;;;;;28.90;20.20;;;;;;;12.63;64.29;99797.98;103118;1253;138848;-75
2024/03/01 10:42:17;;;;;;;;;;;;;;;12.74;64.93;99799.19;103168;1259;111223;-75
2024/03/01 10:44:53;;;;;;;28.90;19.80;;;;;;;12.84;64.39;99794.20;103156;1259;126115;-76
2024/03/01 10:47:24;;;;;;;27.70;20.30;;;;;;;12.98;64.29;99787.73;103313;1258;98235;-76
2024/03/01 10:50:11;;;;;;;30.60;20.90;;;;;;;13.11;63.86;99790.74;103319;1253;137954;-76
2024/03/01 10:52:42;;;;;;;24.90;19.40;;;;;;;13.24;63.31;99781.20;103195;1259;97700;-76
2024/03/01 10:55:13;;;;;;;28.00;19.30;;;;;;;13.37;61.98;99779.73;103184;1253;109519;-77
2024/03/01 10:57:49;;;;;;;33.50;21.20;;;;;;;13.47;62.30;99779.35;103181;1255;138035;-76
2024/03/01 11:00:26;;;;;;;31.90;20.80;;;;;;;13.61;61.63;99777.20;103327;1258;97863;-74
2024/03/01 11:03:09;;;;;;;31.10;21.30;;;;;;;13.83;62.23;99772.79;103048;1253;139427;-75
2024/03/01 11:05:44;;;;;;;32.50;20.60;;;;;;;14.05;61.28;99771.39;103326;1258;97826;-75
2024/03/01 11:08:24;;;;;;;30.30;20.30;;;;;;;14.28;62.01;99766.14;103413;1256;137999;-75
2024/03/01 11:11:01;;;;;;;30.70;19.50;;;;;;;14.47;60.21;99764.05;103253;1253;107734;-75
2024/03/01 11:13:32;;;;;;;33.40;21.30;;;;;;;14.42;59.23;99772.72;103422;1258;97804;-76
2024/03/01 11:16:02;;;;;;;28.20;19.90;;;;;;;14.26;59.55;99773.07;103273;1253;107381;-75